Time;durP1;ratioP1;P1;durP2;ratioP2;P2;SDS_P1;SDS_P2;PMS_P1;PMS_P2;Temp;Humidity;BMP_temperature;BMP_pressure;BME280_temperature;BME280_humidity;BME280_pressure;Samples;Min_cycle;Max_cycle;Signal;HPM_P1;HPM_P2
2024/01/19 00:02:23;;;;;;;1.47;1.40;;;-0.30;99.90;;;;;;5053124;28;20996;-77
2024/01/19 00:04:50;;;;;;;3.97;0.90;;;-0.30;99.90;;;;;;5053282;28;20453;-77
2024/01/19 00:07:18;;;;;;;7.00;2.30;;;-0.20;99.90;;;;;;5053073;28;20474;-77
2024/01/19 00:09:44;;;;;;;1.73;0.70;;;-0.20;99.90;;;;;;5053313;28;20834;-77
2024/01/19 00:12:11;;;;;;;3.53;1.80;;;-0.20;99.90;;;;;;5053285;28;20449;-77
2024/01/19 00:14:38;;;;;;;1.97;1.50;;;-0.20;99.90;;;;;;5053224;28;20445;-77
2024/01/19 00:17:05;;;;;;;2.77;1.70;;;-0.20;99.90;;;;;;5053258;28;20437;-77
2024/01/19 00:19:33;;;;;;;4.03;1.30;;;-0.20;99.90;;;;;;5053697;28;20458;-77
2024/01/19 00:22:00;;;;;;;3.83;2.03;;;-0.20;99.90;;;;;;5053778;28;20450;-77
2024/01/19 00:24:28;;;;;;;39.80;2.77;;;-0.20;99.90;;;;;;5053492;28;20927;-77
2024/01/19 00:26:55;;;;;;;0.77;0.77;;;-0.20;99.90;;;;;;5053652;28;20448;-77
2024/01/19 00:29:22;;;;;;;3.30;2.33;;;-0.20;99.90;;;;;;5053583;28;20489;-77
2024/01/19 00:31:48;;;;;;;5.03;2.07;;;-0.30;99.90;;;;;;5053450;28;20445;-77
2024/01/19 00:34:16;;;;;;;1.27;1.17;;;-0.30;99.90;;;;;;5053466;28;20449;-77
2024/01/19 00:36:43;;;;;;;5.80;1.40;;;-0.30;99.90;;;;;;5053525;28;20538;-77
2024/01/19 00:39:09;;;;;;;2.20;1.63;;;-0.30;99.90;;;;;;5053129;28;20477;-77
2024/01/19 00:41:37;;;;;;;3.70;1.80;;;-0.30;99.90;;;;;;5053167;28;20442;-77
2024/01/19 00:44:05;;;;;;;1.53;1.07;;;-0.30;99.90;;;;;;5054005;28;20441;-77
2024/01/19 00:46:32;;;;;;;0.47;0.47;;;-0.40;99.90;;;;;;5053232;28;20824;-77
2024/01/19 00:48:58;;;;;;;8.40;1.23;;;-0.30;99.90;;;;;;5053332;28;20494;-77
2024/01/19 00:51:25;;;;;;;2.00;1.40;;;-0.30;99.90;;;;;;5055978;28;20472;-77
2024/01/19 00:53:52;;;;;;;1.33;1.23;;;-0.30;99.90;;;;;;5057023;28;20446;-77
2024/01/19 00:56:18;;;;;;;2.00;1.33;;;-0.40;99.90;;;;;;5057072;28;20446;-77
2024/01/19 00:58:46;;;;;;;2.93;1.00;;;-0.30;99.90;;;;;;5056718;28;20813;-77
2024/01/19 01:01:13;;;;;;;0.60;0.60;;;-0.30;99.90;;;;;;5057265;28;20441;-77
2024/01/19 01:03:40;;;;;;;1.17;1.00;;;-0.30;99.90;;;;;;5057183;28;20457;-77
2024/01/19 01:06:07;;;;;;;0.67;0.67;;;-0.30;99.90;;;;;;5056607;28;20970;-77
2024/01/19 01:08:35;;;;;;;0.53;0.53;;;-0.30;99.90;;;;;;5056592;28;20495;-77
2024/01/19 01:11:02;;;;;;;2.33;1.00;;;-0.30;99.90;;;;;;5056879;28;20454;-77
2024/01/19 01:13:29;;;;;;;2.00;1.80;;;-0.30;99.90;;;;;;5056807;28;20454;-77
2024/01/19 01:15:57;;;;;;;2.67;1.43;;;-0.40;99.90;;;;;;5056717;28;20454;-77
2024/01/19 01:18:24;;;;;;;1.63;0.87;;;-0.40;99.90;;;;;;5056506;28;20462;-77
2024/01/19 01:20:51;;;;;;;2.67;1.07;;;-0.40;99.90;;;;;;5056837;28;20441;-77
2024/01/19 01:23:18;;;;;;;1.30;1.07;;;-0.40;99.90;;;;;;5056477;28;20541;-77
2024/01/19 01:25:45;;;;;;;1.13;0.67;;;-0.40;99.90;;;;;;5056613;28;20444;-77
2024/01/19 01:28:11;;;;;;;1.50;1.40;;;-0.40;99.90;;;;;;5056339;28;20503;-77
2024/01/19 01:30:40;;;;;;;8.90;1.67;;;-0.40;99.90;;;;;;5056210;28;20452;-77
2024/01/19 01:33:08;;;;;;;1.47;1.37;;;-0.30;99.90;;;;;;5056749;28;20446;-77
2024/01/19 01:35:35;;;;;;;1.30;0.93;;;-0.30;99.90;;;;;;5056283;28;20450;-77
2024/01/19 01:38:03;;;;;;;1.17;0.80;;;-0.30;99.90;;;;;;5056160;28;20442;-77
2024/01/19 01:40:30;;;;;;;2.43;0.90;;;-0.30;99.90;;;;;;5056219;28;20442;-77
2024/01/19 01:42:58;;;;;;;0.70;0.70;;;-0.30;99.90;;;;;;5055874;28;20441;-77
2024/01/19 01:45:25;;;;;;;0.53;0.53;;;-0.30;99.90;;;;;;5055970;28;20978;-77
2024/01/19 01:47:52;;;;;;;1.23;1.07;;;-0.30;99.90;;;;;;5055977;28;20481;-77
2024/01/19 01:50:20;;;;;;;1.00;1.00;;;-0.30;99.90;;;;;;5055807;28;20461;-77
2024/01/19 01:52:47;;;;;;;2.87;1.03;;;-0.40;99.90;;;;;;5055620;28;20448;-77
2024/01/19 01:55:15;;;;;;;2.07;1.07;;;-0.40;99.90;;;;;;5056134;28;20421;-77
2024/01/19 01:57:44;;;;;;;1.33;1.23;;;-0.40;99.90;;;;;;5055972;28;20445;-77
2024/01/19 02:00:13;;;;;;;2.00;1.23;;;-0.40;99.90;;;;;;5055865;28;20466;-77
2024/01/19 02:02:41;;;;;;;1.93;1.80;;;-0.50;99.90;;;;;;5056138;28;20928;-77
2024/01/19 02:05:08;;;;;;;7.93;0.93;;;-0.40;99.90;;;;;;5056884;28;20457;-77
2024/01/19 02:07:36;;;;;;;1.37;0.50;;;-0.50;99.90;;;;;;5058160;28;20473;-77
2024/01/19 02:10:03;;;;;;;2.67;2.37;;;-0.50;99.90;;;;;;5055932;28;20489;-77
2024/01/19 02:12:30;;;;;;;1.37;0.93;;;-0.50;99.90;;;;;;5055455;28;20975;-77
2024/01/19 02:14:57;;;;;;;2.97;1.43;;;-0.60;99.90;;;;;;5055335;28;20442;-77
2024/01/19 02:17:26;;;;;;;2.80;2.30;;;-0.50;99.90;;;;;;5055508;28;20919;-77
2024/01/19 02:19:53;;;;;;;2.87;0.87;;;-0.60;99.90;;;;;;5055855;28;20462;-77
2024/01/19 02:22:20;;;;;;;1.30;1.03;;;-0.50;99.90;;;;;;5056237;28;20456;-77
2024/01/19 02:24:48;;;;;;;5.40;1.33;;;-0.50;99.90;;;;;;5056131;28;20465;-77
2024/01/19 02:27:15;;;;;;;0.30;0.30;;;-0.50;99.90;;;;;;5055739;28;20449;-77
2024/01/19 02:29:49;;;;;;;3.83;1.07;;;-0.50;99.90;;;;;;5055649;28;20485;-77
2024/01/19 02:32:16;;;;;;;1.63;1.63;;;-0.50;99.90;;;;;;5056292;28;20441;-77
2024/01/19 02:34:45;;;;;;;1.47;1.37;;;-0.50;99.90;;;;;;5056290;28;20454;-77
2024/01/19 02:37:12;;;;;;;5.30;1.40;;;-0.60;99.90;;;;;;5055274;28;20953;-77
2024/01/19 02:39:39;;;;;;;0.97;0.97;;;-0.50;99.90;;;;;;5055665;28;20454;-77
2024/01/19 02:42:07;;;;;;;1.30;1.20;;;-0.60;99.90;;;;;;5055770;28;20446;-77
2024/01/19 02:44:34;;;;;;;1.90;1.20;;;-0.60;99.90;;;;;;5055584;28;20442;-77
2024/01/19 02:47:01;;;;;;;5.30;1.10;;;-0.60;99.90;;;;;;5057924;28;20449;-77
2024/01/19 02:49:27;;;;;;;2.87;2.00;;;-0.60;99.90;;;;;;5055678;28;20493;-77
2024/01/19 02:51:54;;;;;;;3.23;1.03;;;-0.70;99.90;;;;;;5055477;28;20446;-77
2024/01/19 02:54:21;;;;;;;4.30;2.53;;;-0.70;99.90;;;;;;5055329;28;20445;-77
2024/01/19 02:56:47;;;;;;;1.80;1.27;;;-0.80;99.90;;;;;;5055017;28;20950;-77
2024/01/19 02:59:16;;;;;;;3.07;2.77;;;-0.80;99.90;;;;;;5054992;28;20458;-77
2024/01/19 03:01:42;;;;;;;0.40;0.40;;;-0.80;99.90;;;;;;5054974;28;20442;-77
2024/01/19 03:04:09;;;;;;;7.03;1.10;;;-0.80;99.90;;;;;;5055490;28;20438;-77
2024/01/19 03:06:36;;;;;;;2.00;0.40;;;-0.90;99.90;;;;;;5054939;28;20449;-77
2024/01/19 03:09:03;;;;;;;4.63;1.13;;;-0.90;99.90;;;;;;5054305;28;20497;-77
2024/01/19 03:11:30;;;;;;;0.67;0.67;;;-1.00;99.90;;;;;;5054429;28;20450;-77
2024/01/19 03:13:57;;;;;;;2.00;1.90;;;-1.00;99.90;;;;;;5054226;28;20449;-77
2024/01/19 03:16:25;;;;;;;3.80;1.57;;;-1.10;99.90;;;;;;5054228;28;20441;-77
2024/01/19 03:18:54;;;;;;;3.80;0.73;;;-1.10;99.90;;;;;;5055163;28;20462;-77
2024/01/19 03:21:21;;;;;;;1.90;1.03;;;-1.10;99.90;;;;;;5055725;28;20442;-77
2024/01/19 03:23:48;;;;;;;1.40;0.97;;;-1.10;99.90;;;;;;5055641;28;20450;-77
2024/01/19 03:26:15;;;;;;;1.03;0.60;;;-1.30;99.90;;;;;;5055559;28;20453;-77
2024/01/19 03:28:41;;;;;;;0.73;0.63;;;-1.30;99.90;;;;;;5055465;28;20460;-77
2024/01/19 03:31:08;;;;;;;3.17;1.13;;;-1.40;99.90;;;;;;5055846;28;20442;-77
2024/01/19 03:33:36;;;;;;;2.87;0.60;;;-1.50;99.90;;;;;;5055061;28;20441;-77
2024/01/19 03:36:03;;;;;;;0.93;0.43;;;-1.50;99.90;;;;;;5054942;28;20448;-77
2024/01/19 03:38:30;;;;;;;0.87;0.73;;;-1.60;99.90;;;;;;5054994;28;20462;-77
2024/01/19 03:40:57;;;;;;;3.63;1.13;;;-1.60;99.90;;;;;;5055088;28;20424;-77
2024/01/19 03:43:25;;;;;;;2.27;0.77;;;-1.60;99.90;;;;;;5055432;28;20442;-77
2024/01/19 03:45:51;;;;;;;0.70;0.70;;;-1.60;99.90;;;;;;5055063;28;20495;-77
2024/01/19 03:48:18;;;;;;;1.00;0.70;;;-1.70;99.90;;;;;;5054734;28;20456;-77
2024/01/19 03:50:46;;;;;;;1.90;1.63;;;-1.70;99.90;;;;;;5054715;28;20456;-77
2024/01/19 03:53:13;;;;;;;1.07;0.47;;;-1.80;99.90;;;;;;5054682;28;20453;-77
2024/01/19 03:55:40;;;;;;;0.40;0.40;;;-1.80;99.90;;;;;;5054446;28;20460;-77
2024/01/19 03:58:07;;;;;;;1.07;0.70;;;-1.70;99.90;;;;;;5055161;28;20442;-77
2024/01/19 04:00:33;;;;;;;3.87;0.97;;;-1.70;99.90;;;;;;5054547;28;20441;-77
2024/01/19 04:03:00;;;;;;;6.63;1.37;;;-1.60;99.90;;;;;;5054584;28;20452;-77
2024/01/19 04:05:27;;;;;;;3.30;1.40;;;-1.50;99.90;;;;;;5054609;28;20453;-77
2024/01/19 04:07:55;;;;;;;2.87;1.40;;;-1.50;99.90;;;;;;5054055;28;20473;-77
2024/01/19 04:10:23;;;;;;;2.00;1.03;;;-1.50;99.90;;;;;;5054143;28;20489;-77
2024/01/19 04:12:51;;;;;;;2.30;0.90;;;-1.40;99.90;;;;;;5054010;28;20950;-77
2024/01/19 04:15:18;;;;;;;2.10;0.80;;;-1.30;99.90;;;;;;5054286;28;20500;-77
2024/01/19 04:17:45;;;;;;;4.13;1.57;;;-1.20;99.90;;;;;;5054163;28;20965;-77
2024/01/19 04:20:12;;;;;;;1.00;0.53;;;-1.10;99.90;;;;;;5054107;28;20489;-77
2024/01/19 04:22:39;;;;;;;1.67;1.67;;;-1.10;99.90;;;;;;5054376;28;20453;-77
2024/01/19 04:25:07;;;;;;;2.00;0.80;;;-1.10;99.90;;;;;;5056037;28;20450;-77
2024/01/19 04:27:34;;;;;;;5.47;1.70;;;-1.10;99.90;;;;;;5059524;28;20816;-77
2024/01/19 04:30:01;;;;;;;10.10;1.23;;;-1.10;99.90;;;;;;5059493;28;20492;-78
2024/01/19 04:32:27;;;;;;;6.77;2.10;;;-1.00;99.90;;;;;;5059152;28;20452;-77
2024/01/19 04:34:53;;;;;;;2.50;1.07;;;-1.10;99.90;;;;;;5059170;28;20842;-77
2024/01/19 04:37:20;;;;;;;2.93;1.33;;;-1.10;99.90;;;;;;5059524;28;20208;-77
2024/01/19 04:39:47;;;;;;;2.97;1.37;;;-1.00;99.90;;;;;;5059120;28;20492;-77
2024/01/19 04:42:14;;;;;;;4.47;1.60;;;-1.00;99.90;;;;;;5059427;28;20445;-77
2024/01/19 04:44:41;;;;;;;0.43;0.43;;;-1.00;99.90;;;;;;5058930;28;20453;-77
2024/01/19 04:47:09;;;;;;;4.23;1.63;;;-1.00;99.90;;;;;;5058449;28;20453;-77
2024/01/19 04:49:35;;;;;;;0.80;0.73;;;-1.00;99.90;;;;;;5058342;28;20488;-77
2024/01/19 04:52:02;;;;;;;1.00;1.00;;;-1.00;99.90;;;;;;5058575;28;20472;-77
2024/01/19 04:54:29;;;;;;;1.67;0.97;;;-1.10;99.90;;;;;;5058342;28;20452;-77
2024/01/19 04:56:55;;;;;;;0.53;0.53;;;-1.10;99.90;;;;;;5058020;28;20947;-77
2024/01/19 04:59:23;;;;;;;3.27;0.97;;;-1.10;99.90;;;;;;5058254;28;20458;-77
2024/01/19 05:01:50;;;;;;;4.10;1.97;;;-1.20;99.90;;;;;;5057952;28;20445;-77
2024/01/19 05:04:17;;;;;;;2.10;0.93;;;-1.10;99.90;;;;;;5057960;28;20457;-77
2024/01/19 05:06:44;;;;;;;1.50;0.60;;;-1.20;99.90;;;;;;5058036;28;20796;-77
2024/01/19 05:09:10;;;;;;;3.13;1.10;;;-1.20;99.90;;;;;;5057616;28;20520;-77
2024/01/19 05:11:37;;;;;;;0.83;0.67;;;-1.20;99.90;;;;;;5057732;28;20445;-77
2024/01/19 05:14:05;;;;;;;2.37;1.37;;;-1.20;99.90;;;;;;5057547;28;20977;-77
2024/01/19 05:16:33;;;;;;;0.70;0.70;;;-1.20;99.90;;;;;;5057699;28;20532;-77
2024/01/19 05:19:00;;;;;;;1.07;0.97;;;-1.10;99.90;;;;;;5056822;28;20466;-77
2024/01/19 05:21:26;;;;;;;0.90;0.90;;;-1.20;99.90;;;;;;5057442;28;20445;-77
2024/01/19 05:23:53;;;;;;;0.50;0.50;;;-1.20;99.90;;;;;;5057183;28;20445;-77
2024/01/19 05:26:20;;;;;;;5.80;1.37;;;-1.30;99.90;;;;;;5057021;28;20935;-77
2024/01/19 05:28:46;;;;;;;2.70;1.10;;;-1.30;99.90;;;;;;5056901;28;20470;-77
2024/01/19 05:31:13;;;;;;;1.17;0.50;;;-1.30;99.90;;;;;;5057125;28;20442;-77
2024/01/19 05:33:41;;;;;;;1.13;1.03;;;-1.40;99.90;;;;;;5056417;28;20441;-77
2024/01/19 05:36:08;;;;;;;1.83;1.30;;;-1.40;99.90;;;;;;5056248;28;20481;-77
2024/01/19 05:38:35;;;;;;;4.23;1.70;;;-1.40;99.90;;;;;;5056864;28;20556;-77
2024/01/19 05:41:03;;;;;;;3.93;1.67;;;-1.40;99.90;;;;;;5056788;28;20450;-77
2024/01/19 05:43:30;;;;;;;1.70;0.80;;;-1.40;99.90;;;;;;5058035;28;20448;-77
2024/01/19 05:45:56;;;;;;;1.20;1.20;;;-1.40;99.90;;;;;;5062268;28;20483;-78
2024/01/19 05:48:24;;;;;;;4.57;0.83;;;-1.40;99.90;;;;;;5065438;28;20472;-77
2024/01/19 05:50:53;;;;;;;2.20;2.03;;;-1.40;99.90;;;;;;5063609;28;20535;-77
2024/01/19 05:53:19;;;;;;;3.57;1.23;;;-1.30;99.90;;;;;;5057985;28;20446;-77
2024/01/19 05:55:46;;;;;;;0.97;0.97;;;-1.30;99.90;;;;;;5057129;28;20446;-77
2024/01/19 05:58:13;;;;;;;3.50;2.13;;;-1.20;99.90;;;;;;5056656;28;20445;-77
2024/01/19 06:00:39;;;;;;;0.70;0.70;;;-1.30;99.90;;;;;;5057137;28;20442;-77
2024/01/19 06:03:06;;;;;;;1.23;0.90;;;-1.20;99.90;;;;;;5056710;28;20969;-77
2024/01/19 06:05:33;;;;;;;1.70;0.93;;;-1.20;99.90;;;;;;5056350;28;20454;-77
2024/01/19 06:08:01;;;;;;;2.23;0.70;;;-1.20;99.90;;;;;;5055617;28;20473;-78
2024/01/19 06:10:28;;;;;;;1.03;0.60;;;-1.20;99.90;;;;;;5055887;28;20481;-77
2024/01/19 06:12:54;;;;;;;0.30;0.30;;;-1.20;99.90;;;;;;5055746;28;20446;-77
2024/01/19 06:15:21;;;;;;;2.00;1.53;;;-1.20;99.90;;;;;;5056373;28;20453;-77
2024/01/19 06:17:48;;;;;;;3.07;2.20;;;-1.20;99.90;;;;;;5056650;28;20456;-77
2024/01/19 06:20:15;;;;;;;1.13;0.50;;;-1.20;99.90;;;;;;5055831;28;20820;-77
2024/01/19 06:22:43;;;;;;;1.43;0.80;;;-1.30;99.90;;;;;;5056166;28;20452;-77
2024/01/19 06:25:12;;;;;;;3.30;1.00;;;-1.30;99.90;;;;;;5055834;28;20446;-77
2024/01/19 06:27:39;;;;;;;1.60;0.77;;;-1.30;99.90;;;;;;5057467;28;20450;-77
2024/01/19 06:30:07;;;;;;;0.67;0.67;;;-1.40;99.90;;;;;;5057156;28;20477;-77
2024/01/19 06:32:33;;;;;;;1.37;1.17;;;-1.40;99.90;;;;;;5057024;28;20946;-77
2024/01/19 06:35:00;;;;;;;1.70;1.60;;;-1.50;99.90;;;;;;5057473;28;20445;-77
2024/01/19 06:37:27;;;;;;;0.60;0.60;;;-1.60;99.90;;;;;;5057265;28;20450;-77
2024/01/19 06:39:54;;;;;;;0.93;0.83;;;-1.60;99.90;;;;;;5057492;28;20469;-77
2024/01/19 06:42:22;;;;;;;1.80;1.70;;;-1.60;99.90;;;;;;5057216;28;20491;-77
2024/01/19 06:44:49;;;;;;;2.30;1.40;;;-1.60;99.90;;;;;;5056647;28;20472;-77
2024/01/19 06:47:18;;;;;;;2.00;1.80;;;-1.60;99.90;;;;;;5056607;28;20446;-77
2024/01/19 06:49:47;;;;;;;5.47;1.50;;;-1.70;99.90;;;;;;5055613;28;21068;-77
2024/01/19 06:52:14;;;;;;;3.17;1.43;;;-1.60;99.90;;;;;;5056378;28;20467;-77
2024/01/19 06:54:41;;;;;;;0.77;0.50;;;-1.60;99.90;;;;;;5056035;28;20449;-78
2024/01/19 06:57:08;;;;;;;0.80;0.80;;;-1.70;99.90;;;;;;5056081;28;20453;-77
2024/01/19 06:59:36;;;;;;;0.50;0.50;;;-1.60;99.90;;;;;;5056000;28;20830;-78
2024/01/19 07:02:02;;;;;;;2.40;0.97;;;-1.60;99.90;;;;;;5055812;28;20421;-77
2024/01/19 07:04:29;;;;;;;1.50;1.20;;;-1.60;99.90;;;;;;5055616;28;20446;-77
2024/01/19 07:06:56;;;;;;;0.83;0.80;;;-1.70;99.90;;;;;;5055210;28;20446;-78
2024/01/19 07:09:22;;;;;;;3.20;1.17;;;-1.70;99.90;;;;;;5055429;28;20466;-77
2024/01/19 07:11:49;;;;;;;2.70;1.33;;;-1.70;99.90;;;;;;5055328;28;20990;-77
2024/01/19 07:14:16;;;;;;;2.30;0.60;;;-1.70;99.90;;;;;;5055446;28;20453;-77
2024/01/19 07:16:44;;;;;;;1.67;1.57;;;-1.70;99.90;;;;;;5055446;28;20446;-78
2024/01/19 07:19:11;;;;;;;1.33;1.23;;;-1.70;99.90;;;;;;5055992;28;20493;-78
2024/01/19 07:21:38;;;;;;;2.40;1.30;;;-1.70;99.90;;;;;;5055100;28;20453;-77
2024/01/19 07:24:06;;;;;;;1.20;1.20;;;-1.70;99.90;;;;;;5055463;28;20872;-78
2024/01/19 07:26:32;;;;;;;4.70;1.47;;;-1.70;99.90;;;;;;5055331;28;20445;-78
2024/01/19 07:28:59;;;;;;;1.90;1.03;;;-1.70;99.90;;;;;;5055300;28;20828;-78
2024/01/19 07:31:26;;;;;;;0.97;0.73;;;-1.60;99.90;;;;;;5054784;28;21027;-77
2024/01/19 07:33:54;;;;;;;1.43;0.87;;;-1.60;99.90;;;;;;5054990;28;20433;-77
2024/01/19 07:36:21;;;;;;;4.07;1.07;;;-1.60;99.90;;;;;;5054972;28;20434;-77
2024/01/19 07:38:48;;;;;;;1.70;1.23;;;-1.60;99.90;;;;;;5054385;28;20451;-77
2024/01/19 07:41:14;;;;;;;1.73;1.63;;;-1.60;99.90;;;;;;5054516;28;20416;-77
2024/01/19 07:43:41;;;;;;;2.30;1.17;;;-1.50;99.90;;;;;;5054559;28;20457;-77
2024/01/19 07:46:08;;;;;;;3.23;1.33;;;-1.50;99.90;;;;;;5054489;28;20934;-77
2024/01/19 07:48:35;;;;;;;0.47;0.47;;;-1.40;99.90;;;;;;5054717;28;20432;-78
2024/01/19 07:51:03;;;;;;;5.50;1.37;;;-1.40;99.90;;;;;;5054906;28;20493;-77
2024/01/19 07:53:31;;;;;;;2.77;1.23;;;-1.40;99.90;;;;;;5054724;28;20445;-77
2024/01/19 07:55:58;;;;;;;1.40;0.90;;;-1.40;99.90;;;;;;5054696;28;20477;-77
2024/01/19 07:58:25;;;;;;;1.73;1.73;;;-1.30;99.90;;;;;;5054456;28;20469;-78
2024/01/19 08:00:52;;;;;;;0.90;0.40;;;-1.30;99.90;;;;;;5054369;28;20433;-78
2024/01/19 08:03:19;;;;;;;1.70;0.80;;;-1.20;99.90;;;;;;5057654;28;20442;-77
2024/01/19 08:05:46;;;;;;;10.70;1.37;;;-1.20;99.90;;;;;;5065288;28;20452;-78
2024/01/19 08:08:15;;;;;;;5.07;1.47;;;-1.10;99.90;;;;;;5064870;28;20452;-77
2024/01/19 08:10:41;;;;;;;1.17;1.07;;;-1.00;99.90;;;;;;5064200;28;20539;-77
2024/01/19 08:13:08;;;;;;;1.37;0.83;;;-0.90;99.90;;;;;;5065017;28;20456;-77
2024/01/19 08:15:35;;;;;;;0.80;0.70;;;-0.90;99.90;;;;;;5064684;28;20450;-78
2024/01/19 08:18:02;;;;;;;1.07;0.97;;;-0.90;99.90;;;;;;5056564;28;20960;-78
2024/01/19 08:20:29;;;;;;;10.70;2.20;;;-0.90;99.90;;;;;;5054964;28;20816;-77
2024/01/19 08:22:56;;;;;;;6.33;1.83;;;-0.90;99.90;;;;;;5054604;28;20446;-77
2024/01/19 08:25:24;;;;;;;0.53;0.53;;;-0.80;99.90;;;;;;5053952;28;20948;-77
2024/01/19 08:27:51;;;;;;;0.57;0.57;;;-0.70;99.90;;;;;;5054673;28;20457;-77
2024/01/19 08:30:19;;;;;;;3.03;1.27;;;-0.60;99.90;;;;;;5056788;28;20496;-77
2024/01/19 08:32:46;;;;;;;0.50;0.50;;;-0.50;99.90;;;;;;5056870;28;20454;-77
2024/01/19 08:35:12;;;;;;;0.97;0.87;;;-0.40;99.90;;;;;;5056024;28;20450;-78
2024/01/19 08:37:40;;;;;;;2.80;1.40;;;-0.30;99.90;;;;;;5056053;28;20449;-77
2024/01/19 08:40:08;;;;;;;0.87;0.87;;;-0.10;99.90;;;;;;5055873;28;20465;-77
2024/01/19 08:42:37;;;;;;;6.80;2.50;;;-0.10;99.90;;;;;;5055936;28;20449;-77
2024/01/19 08:45:04;;;;;;;2.23;1.57;;;0.00;99.90;;;;;;5055579;28;20950;-77
2024/01/19 08:47:31;;;;;;;3.33;1.40;;;-0.10;99.90;;;;;;5055972;28;20969;-77
2024/01/19 08:49:59;;;;;;;1.03;0.57;;;-0.10;99.90;;;;;;5056068;28;20465;-77
2024/01/19 08:52:28;;;;;;;2.40;1.17;;;-0.20;99.90;;;;;;5055138;28;20450;-77
2024/01/19 08:54:55;;;;;;;5.23;1.40;;;-0.40;99.90;;;;;;5055271;28;20446;-77
2024/01/19 08:57:23;;;;;;;3.20;1.60;;;-0.50;99.90;;;;;;5055056;28;20946;-77
2024/01/19 08:59:51;;;;;;;3.13;1.37;;;-0.40;99.90;;;;;;5054824;28;20473;-77
2024/01/19 09:02:18;;;;;;;7.10;1.67;;;-0.10;99.90;;;;;;5055924;28;20434;-77
2024/01/19 09:04:45;;;;;;;1.70;1.60;;;0.40;99.90;;;;;;5064790;28;20481;-77
2024/01/19 09:07:12;;;;;;;1.23;0.80;;;1.30;99.90;;;;;;5065534;28;20848;-78
2024/01/19 09:09:40;;;;;;;2.13;1.27;;;2.40;99.90;;;;;;5061186;28;20461;-78
2024/01/19 09:12:07;;;;;;;1.13;1.03;;;3.40;99.90;;;;;;5056420;28;20517;-78
2024/01/19 09:14:35;;;;;;;2.17;1.10;;;4.40;99.90;;;;;;5057955;28;20453;-78
2024/01/19 09:17:03;;;;;;;1.50;1.10;;;5.20;99.90;;;;;;5057788;28;20450;-78
2024/01/19 09:19:30;;;;;;;13.33;2.60;;;5.30;99.90;;;;;;5057022;28;20456;-77
2024/01/19 09:21:57;;;;;;;0.70;0.70;;;4.80;99.90;;;;;;5056876;28;20453;-77
2024/01/19 09:24:24;;;;;;;2.13;1.67;;;5.20;99.90;;;;;;5056805;28;20441;-77
2024/01/19 09:26:50;;;;;;;6.70;3.10;;;6.20;99.90;;;;;;5056758;28;20446;-77
2024/01/19 09:29:17;;;;;;;2.70;2.27;;;7.60;99.90;;;;;;5057084;28;20461;-77
2024/01/19 09:31:45;;;;;;;2.50;1.53;;;8.70;99.90;;;;;;5060723;28;20483;-78
2024/01/19 09:34:14;;;;;;;4.73;2.50;;;9.60;99.90;;;;;;5077845;28;20531;-78
2024/01/19 09:36:41;;;;;;;8.37;2.53;;;10.20;99.90;;;;;;5076902;28;20527;-77
2024/01/19 09:39:09;;;;;;;2.77;1.60;;;10.50;99.90;;;;;;5076807;28;20465;-77
2024/01/19 09:41:39;;;;;;;3.07;2.80;;;10.50;99.90;;;;;;5076924;28;20536;-77
2024/01/19 09:44:08;;;;;;;3.20;2.50;;;10.30;99.90;;;;;;5076962;28;20501;-77
2024/01/19 09:46:43;;;;;;;2.57;1.80;;;9.40;99.90;;;;;;5076852;28;20807;-77
2024/01/19 09:49:20;;;;;;;2.53;2.33;;;8.30;99.90;;;;;;5076359;28;20463;-77
2024/01/19 09:51:56;;;;;;;3.03;1.70;;;7.10;99.90;;;;;;5076629;28;20473;-77
2024/01/19 09:54:30;;;;;;;4.53;1.87;;;5.90;99.90;;;;;;5065362;28;20441;-77
2024/01/19 09:56:57;;;;;;;3.87;1.93;;;5.40;99.90;;;;;;5076632;28;20811;-77
2024/01/19 09:59:24;;;;;;;2.90;2.63;;;5.40;99.90;;;;;;5073253;28;20488;-77
2024/01/19 10:01:55;;;;;;;2.40;1.70;;;5.50;99.90;;;;;;5076233;28;20441;-78
2024/01/19 10:04:24;;;;;;;1.43;1.33;;;5.80;99.90;;;;;;5076218;28;20437;-78
2024/01/19 10:06:51;;;;;;;2.40;2.20;;;6.20;99.90;;;;;;5075944;28;20526;-77
2024/01/19 10:09:19;;;;;;;2.20;1.73;;;6.70;99.90;;;;;;5075944;28;20461;-77
2024/01/19 10:11:47;;;;;;;3.93;2.50;;;7.30;99.90;;;;;;5076019;28;20465;-77
2024/01/19 10:14:14;;;;;;;2.10;1.40;;;7.40;99.90;;;;;;5075299;28;20452;-77
2024/01/19 10:16:43;;;;;;;3.17;1.30;;;7.40;99.90;;;;;;5075397;28;20437;-77
2024/01/19 10:19:13;;;;;;;4.63;1.33;;;7.00;99.90;;;;;;5071481;28;20465;-78
2024/01/19 10:21:41;;;;;;;5.10;1.27;;;6.60;99.90;;;;;;5054155;28;20438;-77
2024/01/19 10:24:09;;;;;;;10.20;1.40;;;5.90;99.90;;;;;;5070445;28;20524;-77
2024/01/19 10:26:37;;;;;;;9.60;1.63;;;5.40;99.90;;;;;;5074162;28;20437;-77
2024/01/19 10:29:11;;;;;;;1.43;1.13;;;4.90;99.90;;;;;;5074198;28;20504;-77
2024/01/19 10:31:39;;;;;;;0.73;0.73;;;5.10;99.90;;;;;;5074860;28;20845;-77
2024/01/19 10:34:06;;;;;;;2.63;1.10;;;3.90;99.90;;;;;;5074380;28;20482;-77
2024/01/19 10:36:40;;;;;;;1.23;1.13;;;3.70;99.90;;;;;;5073845;28;20962;-77
2024/01/19 10:39:18;;;;;;;2.40;1.13;;;3.60;99.90;;;;;;5074455;28;20464;-78
2024/01/19 10:41:45;;;;;;;1.90;1.40;;;3.50;99.90;;;;;;5075222;28;20445;-77
2024/01/19 10:44:13;;;;;;;2.03;0.80;;;3.40;99.90;;;;;;5075843;28;20449;-77
2024/01/19 10:46:40;;;;;;;1.00;0.90;;;3.20;99.90;;;;;;5075670;28;20443;-77
2024/01/19 10:49:07;;;;;;;3.33;1.70;;;3.10;99.90;;;;;;5075382;28;20465;-77
2024/01/19 10:51:36;;;;;;;1.47;1.37;;;3.00;99.90;;;;;;5075062;28;20476;-77
2024/01/19 10:54:04;;;;;;;2.47;1.33;;;2.90;99.90;;;;;;5074863;28;20977;-77
2024/01/19 10:56:31;;;;;;;1.30;0.63;;;2.90;99.90;;;;;;5060665;28;20446;-77
2024/01/19 10:59:10;;;;;;;0.80;0.80;;;3.00;99.90;;;;;;5052541;28;20458;-77
2024/01/19 11:01:37;;;;;;;0.47;0.47;;;3.10;99.90;;;;;;5054470;28;20418;-77
2024/01/19 11:04:06;;;;;;;2.00;1.10;;;3.10;99.90;;;;;;5054496;28;20442;-77
2024/01/19 11:06:34;;;;;;;2.40;1.07;;;3.00;99.90;;;;;;5054800;28;20448;-77
2024/01/19 11:09:01;;;;;;;1.07;0.90;;;2.80;99.90;;;;;;5054356;28;20492;-77
2024/01/19 11:11:31;;;;;;;1.10;1.10;;;2.70;99.90;;;;;;5054882;28;20484;-77
2024/01/19 11:14:02;;;;;;;0.90;0.53;;;2.60;99.90;;;;;;5054909;28;20773;-77
2024/01/19 11:16:29;;;;;;;0.60;0.60;;;2.60;99.90;;;;;;5054693;28;20430;-77
2024/01/19 11:18:56;;;;;;;1.30;1.20;;;2.60;99.90;;;;;;5054694;28;21001;-77
2024/01/19 11:21:24;;;;;;;3.50;1.20;;;2.60;99.90;;;;;;5054641;28;20496;-77
2024/01/19 11:23:51;;;;;;;1.43;0.63;;;2.60;99.90;;;;;;5054617;28;20453;-77
2024/01/19 11:26:26;;;;;;;1.53;0.80;;;2.60;99.90;;;;;;5054670;28;20445;-77
2024/01/19 11:29:00;;;;;;;3.23;1.57;;;2.60;99.90;;;;;;5054974;28;20469;-77
2024/01/19 11:31:30;;;;;;;2.40;0.90;;;2.60;99.90;;;;;;5054241;28;20475;-77
2024/01/19 11:33:57;;;;;;;0.77;0.77;;;2.50;99.90;;;;;;5053693;28;20480;-77
2024/01/19 11:36:57;;;;;;;4.00;1.03;;;2.50;99.90;;;;;;5053795;28;20454;-77
2024/01/19 11:39:43;;;;;;;1.10;0.90;;;2.40;99.90;;;;;;5053966;28;20465;-77
2024/01/19 11:42:30;;;;;;;0.40;0.40;;;2.30;99.90;;;;;;5053994;28;20414;-77
2024/01/19 11:44:59;;;;;;;3.07;0.80;;;2.20;99.90;;;;;;5053372;28;20445;-77
2024/01/19 11:47:45;;;;;;;0.70;0.40;;;2.10;99.90;;;;;;5053850;28;20446;-77
2024/01/19 11:50:13;;;;;;;2.10;0.90;;;2.00;99.90;;;;;;5053618;28;20465;-77
2024/01/19 11:52:42;;;;;;;3.90;0.97;;;1.90;99.90;;;;;;5053679;28;20486;-77
2024/01/19 11:55:40;;;;;;;0.90;0.90;;;1.80;99.90;;;;;;5053486;28;20430;-77
2024/01/19 11:58:30;;;;;;;1.47;0.90;;;1.80;99.90;;;;;;5053564;28;20449;-77
2024/01/19 12:00:59;;;;;;;0.80;0.80;;;1.60;99.90;;;;;;5053125;28;20465;-77
2024/01/19 12:03:26;;;;;;;0.73;0.60;;;1.50;99.90;;;;;;5053486;28;20453;-77
2024/01/19 12:05:55;;;;;;;2.97;0.77;;;1.40;99.90;;;;;;5053657;28;20535;-77
2024/01/19 12:08:22;;;;;;;1.03;0.80;;;1.40;99.90;;;;;;5052955;28;20484;-77
2024/01/19 12:11:00;;;;;;;2.70;0.93;;;1.40;99.90;;;;;;5053503;28;20445;-77
2024/01/19 12:13:27;;;;;;;4.30;1.00;;;1.30;99.90;;;;;;5053126;28;20429;-77
2024/01/19 12:15:53;;;;;;;0.67;0.67;;;1.20;99.90;;;;;;5052998;28;20990;-77
2024/01/19 12:18:22;;;;;;;1.03;0.43;;;1.20;99.90;;;;;;5053209;28;20465;-77
2024/01/19 12:20:53;;;;;;;1.53;1.03;;;1.10;99.90;;;;;;5053415;28;20453;-77
2024/01/19 12:23:20;;;;;;;0.63;0.60;;;1.20;99.90;;;;;;5053672;28;20437;-77
2024/01/19 12:25:47;;;;;;;9.73;1.23;;;1.20;99.90;;;;;;5053351;28;20473;-77
2024/01/19 12:28:15;;;;;;;1.57;1.17;;;1.20;99.90;;;;;;5056476;28;20463;-77
2024/01/19 12:30:44;;;;;;;1.00;0.90;;;1.30;99.90;;;;;;5059628;28;20445;-77
2024/01/19 12:33:15;;;;;;;0.73;0.70;;;1.40;99.90;;;;;;5058962;28;20469;-77
2024/01/19 12:35:45;;;;;;;0.53;0.53;;;1.50;99.90;;;;;;5054820;28;20507;-77
2024/01/19 12:38:14;;;;;;;2.17;0.60;;;1.80;99.90;;;;;;5054080;28;20830;-77
2024/01/19 12:40:43;;;;;;;2.33;0.97;;;2.10;99.90;;;;;;5054177;28;20461;-77
2024/01/19 12:43:10;;;;;;;0.87;0.87;;;2.30;99.90;;;;;;5062094;28;20438;-77
2024/01/19 12:45:37;;;;;;;0.90;0.90;;;2.40;99.90;;;;;;5052781;28;20931;-77
2024/01/19 12:48:04;;;;;;;0.70;0.50;;;2.50;99.90;;;;;;5056675;28;20452;-77
2024/01/19 12:50:32;;;;;;;1.70;0.60;;;2.60;99.90;;;;;;5056948;28;20805;-77
2024/01/19 12:53:00;;;;;;;2.73;1.20;;;2.50;99.90;;;;;;5056884;28;20485;-76
2024/01/19 12:55:27;;;;;;;2.60;0.93;;;2.50;99.90;;;;;;5057037;28;20461;-77